Memphis, TN

3:45 AM CDT en Octubre 21, 2014 (GMT -0500)
Sea Isle | Change Station
CLOSE
Current Station
Estación meteorológica personal
Location: Memphis, TN
Altura: 276 ft
Estaciones meteorológicas cercanas

Alt 276 ft 35.09 °N, 89.89 °W | Updated 2 seconds ago

Partly Cloudy
Parcialmente nublado
54.3 ° F
Sensación térmica 54.3 ° F
N
0.0
Viento Variable Viento desde Sur
Gusts 0.0 mph

Hoy
Alta -- | Baja -- ° F
--% Posibilidad de precipitaciones
Ayer
Alta -- | Baja -- ° F
Precip. -- pul
7:10 AM 6:17 PM
Creciente menguante, 6% visible
Presión 30.02 pul
Visibilidad 10.0 Millas
Nubes Baja 10000 ft
Punto de rocío 54 ° F
Humedad 97%
Precipitaciones 0.00 pul
Espesor de la nieve No disponible.
UV 0 de una escala de 12
Polen 1.90 de una escala de 12
Ozono Buena
PM2.5 Buena
Flu Activity Sporadic
METAR KMEM 210754Z 00000KT 10SM FEW100 13/12 A3003 RMK AO2 SLP165 T01330117

More Conditions Fewer Conditions

Presión 30.02 pul
Visibilidad 10.0 Millas
Nubes Baja 10000 ft
Punto de rocío 54 ° F
Humedad 97%
Precipitaciones 0.00 pul
Espesor de la nieve No disponible.
UV 0 de una escala de 12
Polen 1.90 de una escala de 12
Ozono Buena
PM2.5 Buena
Flu Activity Sporadic
METAR KMEM 210754Z 00000KT 10SM FEW100 13/12 A3003 RMK AO2 SLP165 T01330117

More Conditions Fewer Conditions

10-Day Weather Forecast

Almanac

Astronomía

Oct. 21, 2014 Salida Puesta
Hora real 7:10 AM CDT 6:17 PM CDT
Crepúsculo civil 6:45 AM CDT 6:43 PM CDT
Crepúsculo náutico 6:15 AM CDT 7:12 PM CDT
Crepúsculo astronómico 5:46 AM CDT 7:41 PM CDT
Luna 5:00 AM CDT 5:07 PM CDT
Horas de luz 11h 57m
Horas de luz
11h 06m
Tomorrow will be 2m 4s shorter.
Creciente menguante, 6% of the Moon is Illuminated
Hoy
Creciente menguante
Oct 23
Nueva
Oct 30
Cuarto creciente
Nov 6
Luna llena
Nov 14
Cuarto menguante

Extremos de hoy

Máximos del estado Bajos del estado

Community

WunderPhotos

Upload Photos

1,763,619 ¡fotos cargadas!

Nearby

Calidad del aire

  Calidad del aire Índice AQ Contaminante
Ayer Buena
PM2.5
Ayer Buena
OZONE
Real Buena
PM2.5
Real Buena
OZONE
Martes Buena
OZONE
Martes Buena
PM2.5
Miércoles Buena
OZONE
Miércoles Buena
PM2.5

Grosos de nieve

Estación Profundido Altura
No tenemos constancia de nieve nueva.

Actividad de terremotos

Ciudad Distance Mag. Tiempo y dato
No hay informes recientes de la actividad sísmica.
Magnitud mínima muestra es 2,5.

Temperaturas de aguas costeras

Lugar Temperatura
Sin partes meteorológicos de las estaciones

Estaciones meteorológicas cercanas